Airfield :
LOGIN :

Register | Disclaimer

   EN    FR    IT 

 










Legend :    VFR   Marginal VFR   IFR   Intensive IFR   Very Intensive IFR
Visi :
Ceiling :
>= 8 km
>= 3000ft
5 to 8 km
1000 to 3000 ft
1500m to 5 km
500 to 1000 ft
800 to 1500m
200 to 500 ft
< 800m
< 200 ft
Symbols :   Thunderstorms  Fog  Heavy snow  Heavy precipitations  Wind > 20 kt
SIGMETs :     Misc.  Thunderstorms  Icing  Turbulence  Mountain Waves  Volcanic Ashes






- Airport Elevation : 416 ft
- IATA code : OVD


LEAS - Asturias

CURRENT METAR :
  • 151230Z 00000KT 6000 -RA FEW012 BKN028 11/10 Q1008 NOSIG

EXPIRED METARs :
  • 151200Z VRB02KT 6000 -RA FEW012 BKN027 10/10 Q1008 NOSIG
  • 151130Z 24003KT 200V270 4500 RA FEW008 SCT026 BKN045 10/10 Q1009 TEMPO 2500
  • 151114Z 30006KT 5000 -RA FEW002 SCT007 BKN045 10/10 Q1009 TEMPO 3000 RA
  • 151100Z 29009KT 260V330 3500 +RA FEW002 BKN007 10/10 Q1009 TEMPO 2500 RA
  • 151030Z 32005KT 290V030 2000 R29/P2000 R11/1400N +RA SCT002 BKN006 10/10 Q1009 TEMPO 3000 RA
  • 151010Z 34004KT 290V020 3000 RA SCT002 BKN008 10/10 Q1009 TEMPO 2000

TAF TAF LEAS
Valid from the 15 at 09:00 until the 16 at 09:00 UTC


150800Z 1509/1609 VRB05KT 8000 FEW020 SCT040 TX11/1509Z TN08/1606Z
TEMPO 1509/1512 3000 RA BKN010
PROB30
TEMPO 1509/1512 1500 RA BR BKN003
TEMPO 1517/1609 3000 -RA BKN010
TEMPO 1521/1609 06010KT 1500 RA BKN005 BKN010



MET'MAP, your aeronautical weather chart ! - Copyright ORBIFLY December 2007 - Disclaimer

ORBIFLY MET'MAP TEAM :

Programming & Development : Alexandra Zaïnal
Concept & original design : Baudouin d'Aumeries
Assistance for programming : Marc-Olivier Méhu
Technical & hardware support : Manuel Goepfert

Contact : metmap@orbifly.com




SOURCES & CREDITS :

   NOAA